Time;durP1;ratioP1;P1;durP2;ratioP2;P2;SDS_P1;SDS_P2;PMS_P1;PMS_P2;Temp;Humidity;BMP_temperature;BMP_pressure;BME280_temperature;BME280_humidity;BME280_pressure;Samples;Min_cycle;Max_cycle;Signal;HPM_P1;HPM_P2
2022/11/09 00:18:47;;;;;;;;;;;21.30;60.90;;;;;;6095611;23;19924;-62
2022/11/09 00:21:21;;;;;;;;;;;21.30;62.80;;;;;;6098414;23;19920;-63
2022/11/09 00:23:47;;;;;;;;;;;21.30;62.50;;;;;;6098251;23;19911;-63
2022/11/09 00:26:14;;;;;;;;;;;21.30;61.80;;;;;;6124004;23;20316;-63
2022/11/09 00:28:41;;;;;;;;;;;21.30;63.20;;;;;;6123451;23;20280;-63
2022/11/09 00:31:09;;;;;;;;;;;21.30;62.70;;;;;;6097007;23;19905;-63
2022/11/09 00:33:36;;;;;;;;;;;21.30;62.50;;;;;;6095809;23;19916;-63
2022/11/09 00:36:06;;;;;;;;;;;21.20;62.20;;;;;;6121541;23;19905;-62
2022/11/09 00:38:33;;;;;;;;;;;21.20;62.90;;;;;;6096490;23;19917;-62
2022/11/09 00:41:00;;;;;;;;;;;21.10;63.80;;;;;;6123180;23;20328;-63
2022/11/09 00:43:27;;;;;;;;;;;21.20;65.30;;;;;;6123031;23;19928;-63
2022/11/09 00:45:54;;;;;;;;;;;21.30;65.80;;;;;;6125863;23;19909;-63
2022/11/09 00:48:20;;;;;;;;;;;21.40;65.60;;;;;;6125819;23;19905;-63
2022/11/09 00:50:50;;;;;;;;;;;21.50;66.60;;;;;;6126517;23;19913;-63
2022/11/09 00:53:17;;;;;;;;;;;21.40;63.10;;;;;;6126962;23;19908;-63
2022/11/09 00:55:54;;;;;;;;;;;21.40;63.70;;;;;;6123142;23;19908;-63
2022/11/09 00:58:20;;;;;;;;;;;21.30;62.20;;;;;;6119912;23;19920;-62
2022/11/09 01:00:47;;;;;;;;;;;21.30;60.60;;;;;;6123074;23;19905;-62
2022/11/09 01:03:14;;;;;;;;;;;21.30;61.50;;;;;;6125780;23;19928;-62
2022/11/09 01:05:45;;;;;;;;;;;21.50;60.40;;;;;;6125896;23;19904;-62
2022/11/09 01:08:12;;;;;;;;;;;21.50;58.40;;;;;;6125161;23;19939;-62
2022/11/09 01:10:42;;;;;;;;;;;21.70;59.90;;;;;;6100075;23;19912;-62
2022/11/09 01:13:09;;;;;;;;;;;21.70;61.10;;;;;;6126199;23;19912;-62
2022/11/09 01:15:40;;;;;;;;;;;21.80;61.30;;;;;;6125319;23;19909;-61
2022/11/09 01:18:07;;;;;;;;;;;21.80;60.20;;;;;;6125485;23;19913;-61
2022/11/09 01:20:33;;;;;;;;;;;21.80;60.80;;;;;;6125332;23;19921;-61
2022/11/09 01:23:00;;;;;;;;;;;21.70;60.40;;;;;;6125242;23;19912;-62
2022/11/09 01:25:27;;;;;;;;;;;21.70;61.30;;;;;;6125179;23;19909;-61
2022/11/09 01:27:53;;;;;;;;;;;21.70;61.80;;;;;;6125099;23;19908;-63
2022/11/09 01:30:20;;;;;;;;;;;21.80;62.40;;;;;;6125660;23;19916;-63
2022/11/09 01:32:46;;;;;;;;;;;21.70;61.90;;;;;;6125806;23;20372;-63
2022/11/09 01:35:13;;;;;;;;;;;21.70;62.30;;;;;;6125209;23;19912;-63
2022/11/09 01:37:40;;;;;;;;;;;21.70;62.00;;;;;;6124641;23;19963;-63
2022/11/09 01:40:06;;;;;;;;;;;21.70;63.00;;;;;;6126426;23;20298;-63
2022/11/09 01:42:35;;;;;;;;;;;21.70;63.30;;;;;;6125817;23;20340;-63
2022/11/09 01:45:19;;;;;;;;;;;21.70;64.30;;;;;;6126619;23;20292;-63
2022/11/09 01:47:46;;;;;;;;;;;21.80;62.10;;;;;;6126472;23;19909;-63
2022/11/09 01:59:35;;;;;;;;;;;21.70;60.50;;;;;;6089707;23;20287;-62
2022/11/09 02:02:03;;;;;;;;;;;21.60;61.20;;;;;;6065970;23;19993;-61
2022/11/09 02:04:30;;;;;;;;;;;21.50;60.80;;;;;;6065463;23;19938;-62
2022/11/09 02:06:57;;;;;;;;;;;21.40;60.00;;;;;;6064237;23;19944;-61
2022/11/09 02:09:29;;;;;;;;;;;21.40;59.00;;;;;;6064060;23;19905;-62
2022/11/09 02:11:56;;;;;;;;;;;21.40;59.20;;;;;;6065354;23;19906;-62
2022/11/09 02:14:22;;;;;;;;;;;21.50;59.20;;;;;;6065398;23;19905;-62
2022/11/09 02:16:49;;;;;;;;;;;21.50;59.20;;;;;;6065451;23;19910;-63
2022/11/09 02:19:16;;;;;;;;;;;21.70;60.30;;;;;;6065012;23;19937;-62
2022/11/09 02:21:42;;;;;;;;;;;21.70;57.60;;;;;;6067690;23;19906;-62
2022/11/09 02:24:09;;;;;;;;;;;21.70;59.30;;;;;;6067232;23;20270;-64
2022/11/09 02:26:38;;;;;;;;;;;21.70;60.30;;;;;;6066818;23;19941;-64
2022/11/09 02:29:05;;;;;;;;;;;21.70;59.00;;;;;;6065545;23;19913;-64
2022/11/09 02:31:33;;;;;;;;;;;21.70;58.50;;;;;;6068058;23;20298;-63
2022/11/09 02:34:01;;;;;;;;;;;21.70;58.60;;;;;;6067537;23;19919;-64
2022/11/09 02:36:28;;;;;;;;;;;21.70;57.90;;;;;;6067698;23;19970;-64
2022/11/09 02:38:55;;;;;;;;;;;21.70;58.30;;;;;;6067442;23;19914;-64
2022/11/09 02:41:21;;;;;;;;;;;21.80;60.20;;;;;;6066106;23;20341;-63
2022/11/09 02:43:48;;;;;;;;;;;21.80;60.10;;;;;;6065884;23;19985;-64
2022/11/09 02:46:21;;;;;;;;;;;21.80;60.60;;;;;;6067715;23;20325;-63
2022/11/09 02:48:48;;;;;;;;;;;21.80;61.60;;;;;;6065763;23;19910;-64
2022/11/09 02:51:14;;;;;;;;;;;21.80;60.40;;;;;;6068089;23;19906;-64
2022/11/09 02:53:41;;;;;;;;;;;21.80;58.60;;;;;;6067493;23;19982;-63
2022/11/09 02:56:07;;;;;;;;;;;21.80;60.40;;;;;;6066691;23;19906;-63
2022/11/09 02:58:34;;;;;;;;;;;21.70;58.80;;;;;;6067442;23;19929;-63
2022/11/09 03:01:01;;;;;;;;;;;21.80;58.40;;;;;;6105167;23;20639;-63
2022/11/09 03:03:27;;;;;;;;;;;21.70;58.30;;;;;;6099505;23;19905;-63
2022/11/09 03:05:54;;;;;;;;;;;21.70;57.50;;;;;;6099468;23;19916;-63
2022/11/09 03:08:20;;;;;;;;;;;21.70;58.20;;;;;;6124891;23;20351;-64
2022/11/09 03:10:47;;;;;;;;;;;21.70;56.40;;;;;;6125160;23;19960;-63
2022/11/09 03:13:13;;;;;;;;;;;21.80;58.10;;;;;;6125259;23;19905;-63
2022/11/09 03:15:40;;;;;;;;;;;21.70;55.90;;;;;;6121081;23;19989;-63
2022/11/09 03:18:07;;;;;;;;;;;21.80;57.30;;;;;;6123542;23;19920;-63
2022/11/09 03:20:33;;;;;;;;;;;21.90;57.10;;;;;;6124289;23;19909;-63
2022/11/09 03:23:00;;;;;;;;;;;21.90;56.60;;;;;;6124242;23;20330;-63
2022/11/09 03:25:26;;;;;;;;;;;22.00;57.60;;;;;;6124405;23;19936;-63
2022/11/09 03:28:03;;;;;;;;;;;22.00;56.00;;;;;;6098778;23;20299;-63
2022/11/09 03:30:30;;;;;;;;;;;21.90;55.40;;;;;;6098667;23;19909;-63
2022/11/09 03:32:59;;;;;;;;;;;21.90;55.50;;;;;;6124334;23;19908;-63
2022/11/09 03:35:26;;;;;;;;;;;21.90;55.60;;;;;;6098215;23;19905;-62
2022/11/09 03:37:53;;;;;;;;;;;21.90;54.90;;;;;;6123619;23;20244;-64
2022/11/09 03:40:19;;;;;;;;;;;21.80;55.00;;;;;;6124772;23;20224;-63
2022/11/09 03:42:47;;;;;;;;;;;21.80;53.50;;;;;;6124482;23;19980;-63
2022/11/09 03:45:13;;;;;;;;;;;21.80;52.80;;;;;;6098559;23;19912;-63
2022/11/09 03:47:41;;;;;;;;;;;21.80;54.70;;;;;;6098699;23;20284;-63
2022/11/09 03:50:08;;;;;;;;;;;21.80;54.60;;;;;;6092505;23;19909;-62
2022/11/09 03:52:35;;;;;;;;;;;21.80;54.60;;;;;;6094502;23;19909;-63
2022/11/09 03:55:02;;;;;;;;;;;21.90;54.10;;;;;;6098551;23;19909;-62
2022/11/09 03:57:29;;;;;;;;;;;21.90;52.50;;;;;;6123254;23;19916;-63
2022/11/09 03:59:55;;;;;;;;;;;21.90;54.00;;;;;;6122283;23;19939;-63
2022/11/09 04:02:22;;;;;;;;;;;21.90;53.80;;;;;;6124306;23;19905;-63
2022/11/09 04:04:48;;;;;;;;;;;21.90;54.90;;;;;;6120776;23;19980;-63
2022/11/09 04:07:15;;;;;;;;;;;21.80;53.70;;;;;;6122958;23;19912;-63
2022/11/09 04:09:42;;;;;;;;;;;21.80;54.90;;;;;;6124321;23;20329;-62
2022/11/09 04:12:08;;;;;;;;;;;21.80;54.80;;;;;;6098299;23;19932;-63
2022/11/09 04:14:35;;;;;;;;;;;21.80;54.40;;;;;;6126708;23;19905;-63
2022/11/09 04:17:01;;;;;;;;;;;21.80;52.20;;;;;;6125281;23;19908;-62
2022/11/09 04:19:28;;;;;;;;;;;21.80;52.50;;;;;;6126277;23;19920;-62
2022/11/09 04:21:54;;;;;;;;;;;21.80;53.10;;;;;;6125911;23;19939;-62
2022/11/09 04:24:21;;;;;;;;;;;21.80;49.80;;;;;;6126382;23;19980;-62
2022/11/09 04:34:54;;;;;;;;;;;21.80;45.30;;;;;;6100060;23;20390;-62
2022/11/09 04:37:21;;;;;;;;;;;21.80;50.60;;;;;;6126499;23;20252;-62
2022/11/09 04:39:47;;;;;;;;;;;21.80;51.60;;;;;;6126037;23;19928;-62
2022/11/09 04:42:14;;;;;;;;;;;21.80;51.90;;;;;;6126433;23;19960;-62
2022/11/09 04:44:41;;;;;;;;;;;21.80;53.50;;;;;;6126224;23;20342;-62
2022/11/09 04:47:08;;;;;;;;;;;21.70;53.70;;;;;;6099760;23;19979;-62
2022/11/09 04:49:34;;;;;;;;;;;21.80;53.90;;;;;;6125040;23;20748;-62
2022/11/09 04:52:01;;;;;;;;;;;21.80;54.10;;;;;;6122854;23;19917;-62
2022/11/09 04:54:27;;;;;;;;;;;21.70;54.00;;;;;;6123531;23;19905;-62
2022/11/09 04:56:54;;;;;;;;;;;21.70;54.60;;;;;;6124521;23;19905;-63
2022/11/09 04:59:21;;;;;;;;;;;21.80;54.60;;;;;;6124000;23;19959;-62
2022/11/09 05:01:47;;;;;;;;;;;21.70;53.50;;;;;;6123288;23;20344;-62
2022/11/09 05:04:14;;;;;;;;;;;21.70;54.80;;;;;;6122588;23;19988;-62
2022/11/09 05:06:40;;;;;;;;;;;21.70;53.80;;;;;;6125413;23;19908;-62
2022/11/09 05:09:07;;;;;;;;;;;21.70;54.10;;;;;;6125971;23;19979;-62
2022/11/09 05:11:34;;;;;;;;;;;21.70;54.40;;;;;;6125914;23;19905;-62
2022/11/09 05:14:01;;;;;;;;;;;21.70;53.70;;;;;;6126294;23;19905;-62
2022/11/09 05:16:28;;;;;;;;;;;21.70;54.50;;;;;;6126310;23;19905;-62
2022/11/09 05:18:54;;;;;;;;;;;21.70;54.10;;;;;;6125003;23;20252;-62
2022/11/09 05:21:21;;;;;;;;;;;21.70;54.60;;;;;;6125584;23;19928;-63
2022/11/09 05:23:59;;;;;;;;;;;21.70;54.20;;;;;;6125725;23;19909;-62
2022/11/09 05:26:26;;;;;;;;;;;21.60;53.50;;;;;;6126302;23;19905;-63
2022/11/09 05:28:53;;;;;;;;;;;21.60;54.10;;;;;;6125496;23;19915;-62
2022/11/09 05:31:19;;;;;;;;;;;21.70;54.30;;;;;;6126504;23;19983;-63
2022/11/09 05:33:48;;;;;;;;;;;21.60;53.70;;;;;;6126776;23;19919;-63
2022/11/09 05:42:09;;;;;;;;;;;21.50;53.70;;;;;;6094080;23;19931;-62
2022/11/09 05:44:36;;;;;;;;;;;21.40;55.40;;;;;;6096303;23;20347;-63
2022/11/09 05:47:02;;;;;;;;;;;21.50;55.30;;;;;;6096288;23;19901;-64
2022/11/09 05:49:29;;;;;;;;;;;21.40;55.30;;;;;;6095164;23;20314;-63
2022/11/09 05:51:55;;;;;;;;;;;21.40;56.90;;;;;;6092995;23;19909;-63
2022/11/09 05:54:22;;;;;;;;;;;21.30;55.20;;;;;;6090302;23;19912;-64
2022/11/09 05:56:49;;;;;;;;;;;21.30;54.50;;;;;;6093232;23;20312;-64
2022/11/09 05:59:15;;;;;;;;;;;21.30;56.10;;;;;;6082526;23;19988;-64
2022/11/09 06:01:42;;;;;;;;;;;21.30;56.00;;;;;;6090590;23;19916;-64
2022/11/09 06:04:08;;;;;;;;;;;21.20;55.90;;;;;;6093228;23;19912;-64
2022/11/09 06:06:35;;;;;;;;;;;21.20;56.70;;;;;;6093368;23;19915;-64
2022/11/09 06:09:02;;;;;;;;;;;21.20;57.70;;;;;;6092657;23;20033;-63
2022/11/09 06:11:28;;;;;;;;;;;21.20;56.70;;;;;;6091786;23;20301;-63
2022/11/09 06:13:55;;;;;;;;;;;21.10;56.80;;;;;;6093236;23;19909;-63
2022/11/09 06:16:21;;;;;;;;;;;21.10;56.60;;;;;;6093008;23;19910;-64
2022/11/09 06:18:48;;;;;;;;;;;21.10;56.30;;;;;;6092983;23;19917;-63
2022/11/09 06:21:15;;;;;;;;;;;21.10;56.40;;;;;;6093581;23;19909;-63
2022/11/09 06:23:41;;;;;;;;;;;21.10;56.90;;;;;;6093364;23;19910;-63
2022/11/09 06:26:09;;;;;;;;;;;21.10;56.20;;;;;;6092965;23;19905;-63
2022/11/09 06:28:36;;;;;;;;;;;21.20;55.30;;;;;;6088899;23;19995;-63
2022/11/09 06:31:03;;;;;;;;;;;21.10;53.00;;;;;;6091616;23;19906;-63
2022/11/09 06:33:30;;;;;;;;;;;21.10;51.70;;;;;;6091216;23;19913;-63
2022/11/09 06:35:57;;;;;;;;;;;21.00;52.80;;;;;;6093241;23;19957;-63
2022/11/09 06:38:25;;;;;;;;;;;21.10;53.50;;;;;;6091106;23;19952;-62
2022/11/09 06:59:14;;;;;;;;;;;20.90;55.20;;;;;;6095818;23;20246;-62
2022/11/09 07:01:41;;;;;;;;;;;20.90;54.50;;;;;;6122230;23;20083;-62
2022/11/09 07:04:07;;;;;;;;;;;20.90;52.10;;;;;;6121990;23;20332;-62
2022/11/09 07:06:34;;;;;;;;;;;20.80;52.20;;;;;;6122042;23;19909;-63
2022/11/09 07:09:01;;;;;;;;;;;20.80;54.40;;;;;;6122147;23;20388;-63
2022/11/09 07:11:27;;;;;;;;;;;20.80;54.20;;;;;;6122226;23;19909;-63
2022/11/09 07:13:54;;;;;;;;;;;20.80;54.30;;;;;;6122032;23;20041;-63
2022/11/09 07:16:20;;;;;;;;;;;20.80;53.60;;;;;;6122409;23;19905;-63
2022/11/09 07:18:47;;;;;;;;;;;20.80;53.50;;;;;;6121792;23;19962;-63
2022/11/09 07:21:14;;;;;;;;;;;20.80;54.30;;;;;;6120838;23;20328;-63
2022/11/09 07:23:40;;;;;;;;;;;20.70;54.10;;;;;;6121505;23;19909;-63
2022/11/09 07:26:07;;;;;;;;;;;20.70;53.40;;;;;;6119092;23;19985;-63
2022/11/09 07:28:34;;;;;;;;;;;20.70;53.90;;;;;;6121036;23;19905;-63
2022/11/09 07:31:00;;;;;;;;;;;20.70;54.00;;;;;;6121995;23;19920;-63
2022/11/09 07:33:29;;;;;;;;;;;20.70;54.60;;;;;;6121963;23;19916;-63
2022/11/09 07:35:57;;;;;;;;;;;20.60;54.60;;;;;;6121445;23;19909;-63
2022/11/09 07:38:24;;;;;;;;;;;20.60;54.30;;;;;;6094855;23;20016;-63
2022/11/09 07:40:50;;;;;;;;;;;20.60;54.90;;;;;;6121951;23;19909;-63
2022/11/09 07:43:17;;;;;;;;;;;20.50;55.10;;;;;;6122219;23;19913;-63
2022/11/09 07:45:44;;;;;;;;;;;20.60;54.80;;;;;;6121542;23;19951;-63
2022/11/09 07:48:11;;;;;;;;;;;20.50;55.20;;;;;;6120260;23;20351;-63
2022/11/09 07:50:38;;;;;;;;;;;20.50;54.70;;;;;;6096105;23;19984;-63
2022/11/09 07:53:06;;;;;;;;;;;20.50;54.70;;;;;;6120410;23;20112;-63
2022/11/09 07:55:32;;;;;;;;;;;20.50;54.80;;;;;;6121856;23;19909;-63
2022/11/09 07:57:59;;;;;;;;;;;20.40;55.70;;;;;;6122097;23;19932;-63
2022/11/09 11:19:51;;;;;;;;;;;19.50;66.10;;;;;;6109871;23;20283;-64
2022/11/09 11:22:21;;;;;;;;;;;19.50;65.90;;;;;;6125130;23;19913;-64
2022/11/09 11:24:54;;;;;;;;;;;19.50;66.30;;;;;;6100772;23;20301;-64
2022/11/09 11:27:20;;;;;;;;;;;19.50;66.40;;;;;;6125583;23;19905;-64
2022/11/09 11:29:49;;;;;;;;;;;19.40;66.60;;;;;;6125485;23;19929;-64
2022/11/09 11:32:16;;;;;;;;;;;19.40;66.90;;;;;;6099784;23;20320;-64
2022/11/09 11:34:43;;;;;;;;;;;19.40;67.00;;;;;;6099730;23;19908;-64
2022/11/09 11:37:09;;;;;;;;;;;19.40;67.30;;;;;;6125390;23;19909;-64
2022/11/09 11:39:40;;;;;;;;;;;19.40;67.30;;;;;;6125032;23;19923;-64
2022/11/09 11:42:11;;;;;;;;;;;19.40;67.10;;;;;;6125358;23;19908;-64
2022/11/09 11:44:42;;;;;;;;;;;19.40;67.40;;;;;;6099513;23;19984;-64
2022/11/09 11:47:09;;;;;;;;;;;19.40;67.50;;;;;;6099174;23;19912;-64
2022/11/09 11:49:46;;;;;;;;;;;19.40;67.10;;;;;;6099682;23;19933;-64
2022/11/09 11:52:16;;;;;;;;;;;19.40;67.10;;;;;;6099649;23;19913;-64
2022/11/09 11:55:00;;;;;;;;;;;19.40;67.00;;;;;;6125305;23;19905;-64
2022/11/09 11:57:33;;;;;;;;;;;19.40;67.40;;;;;;6124906;23;19980;-64
2022/11/09 12:00:03;;;;;;;;;;;19.40;67.20;;;;;;6125387;23;19988;-64
2022/11/09 12:02:35;;;;;;;;;;;19.30;67.70;;;;;;6125009;23;19916;-64
2022/11/09 12:05:05;;;;;;;;;;;19.30;68.40;;;;;;6125443;23;20244;-64
2022/11/09 12:07:32;;;;;;;;;;;19.30;68.50;;;;;;6125167;23;19905;-64
2022/11/09 12:10:16;;;;;;;;;;;19.30;68.80;;;;;;6125118;23;19905;-64
2022/11/09 12:12:49;;;;;;;;;;;19.30;68.60;;;;;;6124846;23;19912;-64
2022/11/09 12:15:36;;;;;;;;;;;19.30;68.50;;;;;;6099311;23;19909;-64
2022/11/09 12:18:12;;;;;;;;;;;19.30;68.80;;;;;;6124891;23;19928;-65
2022/11/09 12:20:42;;;;;;;;;;;19.30;68.50;;;;;;6099111;23;19917;-64
2022/11/09 12:23:09;;;;;;;;;;;19.30;68.90;;;;;;6124620;23;20299;-64
2022/11/09 12:25:38;;;;;;;;;;;19.30;69.00;;;;;;6125199;23;19909;-64
2022/11/09 12:28:08;;;;;;;;;;;19.30;68.80;;;;;;6125222;23;19905;-64
2022/11/09 12:30:53;;;;;;;;;;;19.40;69.00;;;;;;6125112;23;19912;-64
2022/11/09 12:33:19;;;;;;;;;;;19.40;69.30;;;;;;6125111;23;19912;-64
2022/11/09 12:35:51;;;;;;;;;;;19.40;69.50;;;;;;6126912;23;19905;-64
2022/11/09 12:38:20;;;;;;;;;;;19.40;69.90;;;;;;6101315;23;19913;-64
2022/11/09 12:41:00;;;;;;;;;;;19.40;70.10;;;;;;6127172;23;20293;-64
2022/11/09 12:43:39;;;;;;;;;;;19.40;70.10;;;;;;6101945;23;19988;-64
2022/11/09 12:46:06;;;;;;;;;;;19.40;70.30;;;;;;6126923;23;19916;-64
2022/11/09 12:48:34;;;;;;;;;;;19.40;70.50;;;;;;6101155;23;20269;-64
2022/11/09 12:51:01;;;;;;;;;;;19.40;70.80;;;;;;6126707;23;19905;-64
2022/11/09 12:53:28;;;;;;;;;;;19.40;71.40;;;;;;6126459;23;19905;-64
2022/11/09 12:55:55;;;;;;;;;;;19.30;71.80;;;;;;6101288;23;19975;-64
2022/11/09 12:58:22;;;;;;;;;;;19.40;71.70;;;;;;6126907;23;20359;-64
2022/11/09 13:00:49;;;;;;;;;;;19.40;72.10;;;;;;6101183;23;19913;-64
2022/11/09 13:03:18;;;;;;;;;;;19.40;72.50;;;;;;6126903;23;19953;-64
2022/11/09 13:05:47;;;;;;;;;;;19.30;72.40;;;;;;6101140;23;19913;-64
2022/11/09 13:08:15;;;;;;;;;;;19.30;72.90;;;;;;6126277;23;19933;-64
2022/11/09 13:10:41;;;;;;;;;;;19.30;72.30;;;;;;6100731;23;19912;-64
2022/11/09 13:13:11;;;;;;;;;;;19.30;72.10;;;;;;6100101;23;20343;-64
2022/11/09 13:15:38;;;;;;;;;;;19.30;72.00;;;;;;6126707;23;19929;-64
2022/11/09 13:18:05;;;;;;;;;;;19.20;72.20;;;;;;6100778;23;19909;-64
2022/11/09 13:20:38;;;;;;;;;;;19.30;72.60;;;;;;6100169;23;19924;-64
2022/11/09 13:23:23;;;;;;;;;;;19.30;72.50;;;;;;6126664;23;19937;-64
2022/11/09 13:25:51;;;;;;;;;;;19.30;72.00;;;;;;6100851;23;19913;-64
2022/11/09 13:28:27;;;;;;;;;;;19.30;71.90;;;;;;6126725;23;19905;-64
2022/11/09 13:30:56;;;;;;;;;;;19.30;70.80;;;;;;6126261;23;19928;-64
2022/11/09 13:33:26;;;;;;;;;;;19.30;70.40;;;;;;6126312;23;19905;-64
2022/11/09 13:35:54;;;;;;;;;;;19.30;69.70;;;;;;6100908;23;19913;-64
2022/11/09 13:38:21;;;;;;;;;;;19.30;69.50;;;;;;6126552;23;19924;-64
2022/11/09 13:40:56;;;;;;;;;;;19.30;69.60;;;;;;6126591;23;20400;-64
2022/11/09 13:43:30;;;;;;;;;;;19.30;69.30;;;;;;6126511;23;20240;-64
2022/11/09 13:46:00;;;;;;;;;;;19.30;68.90;;;;;;6100474;23;19905;-64
2022/11/09 13:48:30;;;;;;;;;;;19.30;68.70;;;;;;6100688;23;20213;-64
2022/11/09 13:50:58;;;;;;;;;;;19.30;68.80;;;;;;6126127;23;19940;-64
2022/11/09 13:53:29;;;;;;;;;;;19.30;69.00;;;;;;6100416;23;19905;-64
2022/11/09 13:55:56;;;;;;;;;;;19.30;68.90;;;;;;6125727;23;19905;-64
2022/11/09 13:58:28;;;;;;;;;;;19.30;68.50;;;;;;6126174;23;19908;-64
2022/11/09 14:00:55;;;;;;;;;;;19.30;68.20;;;;;;6126116;23;19905;-64
2022/11/09 14:03:25;;;;;;;;;;;19.30;68.60;;;;;;6100609;23;20285;-64
2022/11/09 14:05:53;;;;;;;;;;;19.30;68.90;;;;;;6100657;23;20261;-64
2022/11/09 14:08:27;;;;;;;;;;;19.30;68.80;;;;;;6100640;23;19909;-64
2022/11/09 14:11:11;;;;;;;;;;;19.30;68.70;;;;;;6125828;23;19909;-64
2022/11/09 14:13:41;;;;;;;;;;;19.30;69.20;;;;;;6125660;23;19909;-64
2022/11/09 14:16:21;;;;;;;;;;;19.30;69.60;;;;;;6126010;23;19909;-64
2022/11/09 14:19:00;;;;;;;;;;;19.30;69.70;;;;;;6125538;23;20391;-64
2022/11/09 14:21:45;;;;;;;;;;;19.20;69.70;;;;;;6100213;23;19912;-63
2022/11/09 14:24:11;;;;;;;;;;;19.20;70.00;;;;;;6125633;23;19905;-64
2022/11/09 14:26:38;;;;;;;;;;;19.10;70.20;;;;;;6125771;23;20244;-64
2022/11/09 14:29:20;;;;;;;;;;;19.10;70.60;;;;;;6100410;23;19912;-64
2022/11/09 14:31:47;;;;;;;;;;;19.10;70.50;;;;;;6125601;23;19905;-64
2022/11/09 14:34:15;;;;;;;;;;;19.00;70.30;;;;;;6126277;23;19931;-64
2022/11/09 14:36:41;;;;;;;;;;;19.00;70.10;;;;;;6125774;23;19908;-64
2022/11/09 14:39:29;;;;;;;;;;;19.00;70.20;;;;;;6099968;23;19913;-64
2022/11/09 14:41:56;;;;;;;;;;;19.00;70.40;;;;;;6125983;23;19912;-64
2022/11/09 14:44:24;;;;;;;;;;;19.00;70.60;;;;;;6126072;23;20236;-64
2022/11/09 14:46:52;;;;;;;;;;;18.90;70.90;;;;;;6099999;23;19976;-64
2022/11/09 14:49:19;;;;;;;;;;;18.90;71.20;;;;;;6125207;23;19995;-64
2022/11/09 14:51:47;;;;;;;;;;;18.90;71.40;;;;;;6125680;23;19916;-64
2022/11/09 14:54:14;;;;;;;;;;;18.90;71.30;;;;;;6099779;23;19905;-64
2022/11/09 14:56:41;;;;;;;;;;;18.90;71.20;;;;;;6125645;23;20232;-64
2022/11/09 14:59:08;;;;;;;;;;;18.80;71.20;;;;;;6100147;23;19957;-64
2022/11/09 15:01:35;;;;;;;;;;;18.80;71.30;;;;;;6099456;23;20297;-64
2022/11/09 15:04:19;;;;;;;;;;;18.80;71.10;;;;;;6124908;23;19981;-64
2022/11/09 15:06:46;;;;;;;;;;;18.80;71.20;;;;;;6125475;23;19999;-64
2022/11/09 15:09:17;;;;;;;;;;;18.70;71.50;;;;;;6125582;23;19905;-64
2022/11/09 15:11:44;;;;;;;;;;;18.70;71.60;;;;;;6099840;23;19983;-64
2022/11/09 15:14:11;;;;;;;;;;;18.70;71.80;;;;;;6125275;23;19905;-64
2022/11/09 15:16:38;;;;;;;;;;;18.60;72.30;;;;;;6125817;23;19905;-64
2022/11/09 15:19:04;;;;;;;;;;;18.50;72.50;;;;;;6125267;23;19916;-64
2022/11/09 15:21:36;;;;;;;;;;;18.50;72.50;;;;;;6125320;23;19905;-64
2022/11/09 15:24:09;;;;;;;;;;;18.50;72.30;;;;;;6099253;23;19905;-64
2022/11/09 15:26:39;;;;;;;;;;;18.50;72.10;;;;;;6125295;23;20316;-64
2022/11/09 15:29:24;;;;;;;;;;;18.50;71.90;;;;;;6099891;23;19947;-64
2022/11/09 15:32:01;;;;;;;;;;;18.50;71.90;;;;;;6125381;23;19908;-64
2022/11/09 15:34:34;;;;;;;;;;;18.50;72.20;;;;;;6125195;23;19905;-64
2022/11/09 15:37:01;;;;;;;;;;;18.40;72.00;;;;;;6125536;23;19929;-64
2022/11/09 15:39:27;;;;;;;;;;;18.40;72.40;;;;;;6125446;23;19913;-64
2022/11/09 15:41:56;;;;;;;;;;;18.30;72.50;;;;;;6124964;23;19996;-64
2022/11/09 15:44:23;;;;;;;;;;;18.30;72.90;;;;;;6099207;23;20276;-64
2022/11/09 15:46:50;;;;;;;;;;;18.30;73.10;;;;;;6125493;23;19913;-64
2022/11/09 15:49:16;;;;;;;;;;;18.20;73.80;;;;;;6125526;23;19911;-64
2022/11/09 15:51:43;;;;;;;;;;;18.20;74.30;;;;;;6126138;23;19905;-64
2022/11/09 15:54:10;;;;;;;;;;;18.10;74.40;;;;;;6099703;23;19980;-64
2022/11/09 15:56:36;;;;;;;;;;;18.00;74.90;;;;;;6125418;23;20223;-64
2022/11/09 15:59:03;;;;;;;;;;;18.00;75.20;;;;;;6124863;23;19924;-64
2022/11/09 16:01:33;;;;;;;;;;;18.00;75.50;;;;;;6125539;23;19927;-64
2022/11/09 16:03:59;;;;;;;;;;;17.80;75.90;;;;;;6125054;23;19915;-64
2022/11/09 16:06:26;;;;;;;;;;;17.80;76.20;;;;;;6125351;23;20085;-64
2022/11/09 16:08:52;;;;;;;;;;;17.80;76.50;;;;;;6125078;23;19909;-64
2022/11/09 16:11:19;;;;;;;;;;;17.70;76.60;;;;;;6101699;23;20244;-64
2022/11/09 16:13:46;;;;;;;;;;;17.70;76.90;;;;;;6126683;23;19905;-64
2022/11/09 16:16:13;;;;;;;;;;;17.70;77.30;;;;;;6127186;23;19960;-64
2022/11/09 16:18:40;;;;;;;;;;;17.70;76.90;;;;;;6126733;23;19997;-64
2022/11/09 16:21:10;;;;;;;;;;;17.70;76.60;;;;;;6101309;23;20251;-64
2022/11/09 16:23:37;;;;;;;;;;;17.70;76.50;;;;;;6101794;23;19956;-64
2022/11/09 16:26:04;;;;;;;;;;;17.70;76.50;;;;;;6127107;23;20193;-64
2022/11/09 16:28:31;;;;;;;;;;;17.80;76.50;;;;;;6101488;23;20316;-64
2022/11/09 16:30:58;;;;;;;;;;;17.70;76.30;;;;;;6101501;23;19911;-64
2022/11/09 16:33:24;;;;;;;;;;;17.70;76.60;;;;;;6127112;23;19912;-64
2022/11/09 16:35:52;;;;;;;;;;;17.60;76.80;;;;;;6127136;23;19912;-64
2022/11/09 16:38:18;;;;;;;;;;;17.60;76.90;;;;;;6100940;23;19931;-64
2022/11/09 16:40:45;;;;;;;;;;;17.50;77.20;;;;;;6126706;23;19905;-64
2022/11/09 16:43:11;;;;;;;;;;;17.50;77.40;;;;;;6126823;23;19928;-64
2022/11/09 16:45:41;;;;;;;;;;;17.50;77.50;;;;;;6127288;23;19967;-64
2022/11/09 16:48:09;;;;;;;;;;;17.50;77.70;;;;;;6101172;23;19912;-64
2022/11/09 16:50:36;;;;;;;;;;;17.40;77.70;;;;;;6100983;23;20324;-64
2022/11/09 16:53:02;;;;;;;;;;;17.40;78.00;;;;;;6126326;23;19916;-64
2022/11/09 16:55:29;;;;;;;;;;;17.40;78.00;;;;;;6127009;23;19972;-64
2022/11/09 16:57:55;;;;;;;;;;;17.40;78.10;;;;;;6126816;23;19909;-64
2022/11/09 17:00:22;;;;;;;;;;;17.40;78.30;;;;;;6126496;23;20328;-64
2022/11/09 17:02:49;;;;;;;;;;;17.30;78.40;;;;;;6126412;23;19905;-64
2022/11/09 17:05:16;;;;;;;;;;;17.30;78.50;;;;;;6127434;23;19988;-64
2022/11/09 17:07:42;;;;;;;;;;;17.30;79.40;;;;;;6126911;23;20343;-64
2022/11/09 17:10:10;;;;;;;;;;;17.30;79.60;;;;;;6101004;23;19905;-64
2022/11/09 17:12:36;;;;;;;;;;;17.20;79.70;;;;;;6099224;23;19909;-63
2022/11/09 17:15:03;;;;;;;;;;;17.20;79.70;;;;;;6126649;23;19943;-64
2022/11/09 17:17:30;;;;;;;;;;;17.10;79.90;;;;;;6100529;23;19960;-64
2022/11/09 17:19:56;;;;;;;;;;;17.10;80.00;;;;;;6099725;23;20367;-64
2022/11/09 17:22:23;;;;;;;;;;;17.10;80.10;;;;;;6126434;23;19909;-64
2022/11/09 17:24:49;;;;;;;;;;;17.00;80.30;;;;;;6125319;23;19909;-64
2022/11/09 17:27:16;;;;;;;;;;;17.00;80.40;;;;;;6124360;23;20205;-64
2022/11/09 17:29:43;;;;;;;;;;;17.00;80.50;;;;;;6125858;23;19924;-64
2022/11/09 17:32:09;;;;;;;;;;;17.00;80.60;;;;;;6126624;23;19961;-64
2022/11/09 17:34:36;;;;;;;;;;;17.00;80.80;;;;;;6126243;23;19905;-64
2022/11/09 17:37:03;;;;;;;;;;;17.00;81.10;;;;;;6125609;23;19909;-64
2022/11/09 17:39:29;;;;;;;;;;;17.00;81.20;;;;;;6099062;23;19944;-64
2022/11/09 17:41:56;;;;;;;;;;;16.90;81.40;;;;;;6125335;23;19949;-64
2022/11/09 17:44:22;;;;;;;;;;;16.90;81.10;;;;;;6126263;23;19928;-64
2022/11/09 17:46:49;;;;;;;;;;;16.80;81.70;;;;;;6125488;23;19936;-64
2022/11/09 17:49:16;;;;;;;;;;;16.70;81.60;;;;;;6125571;23;19915;-64
2022/11/09 17:51:42;;;;;;;;;;;16.70;81.70;;;;;;6126288;23;19905;-64
2022/11/09 17:54:09;;;;;;;;;;;16.70;81.90;;;;;;6125991;23;19971;-64
2022/11/09 17:56:35;;;;;;;;;;;16.70;82.00;;;;;;6125595;23;19936;-64
2022/11/09 17:59:03;;;;;;;;;;;16.70;82.20;;;;;;6125345;23;20248;-64
2022/11/09 18:01:29;;;;;;;;;;;16.70;82.10;;;;;;6125838;23;19933;-64
2022/11/09 18:03:56;;;;;;;;;;;16.80;82.30;;;;;;6125769;23;19952;-65
2022/11/09 18:06:23;;;;;;;;;;;16.90;82.20;;;;;;6125826;23;19916;-64
2022/11/09 18:08:49;;;;;;;;;;;16.90;82.10;;;;;;6126491;23;19912;-65
2022/11/09 18:11:16;;;;;;;;;;;16.80;82.10;;;;;;6126228;23;19905;-65
2022/11/09 18:13:43;;;;;;;;;;;16.80;82.00;;;;;;6125985;23;20379;-65
2022/11/09 18:16:11;;;;;;;;;;;16.80;82.00;;;;;;6125841;23;19909;-64
2022/11/09 18:18:37;;;;;;;;;;;16.80;81.90;;;;;;6099802;23;19913;-64
2022/11/09 18:21:05;;;;;;;;;;;16.70;82.10;;;;;;6099427;23;20269;-64
2022/11/09 18:23:32;;;;;;;;;;;16.70;82.00;;;;;;6125899;23;19979;-64
2022/11/09 18:25:59;;;;;;;;;;;16.70;82.00;;;;;;6125430;23;19948;-64
2022/11/09 18:28:25;;;;;;;;;;;16.70;81.90;;;;;;6125562;23;20256;-64
2022/11/09 18:30:52;;;;;;;;;;;16.70;81.80;;;;;;6124929;23;19904;-64
2022/11/09 18:33:19;;;;;;;;;;;16.70;82.00;;;;;;6125328;23;20160;-64
2022/11/09 18:35:54;;;;;;;;;;;16.70;82.10;;;;;;6126138;23;19912;-64
2022/11/09 18:38:21;;;;;;;;;;;16.70;82.10;;;;;;6125957;23;19916;-64
2022/11/09 18:40:57;;;;;;;;;;;16.70;82.10;;;;;;6126306;23;19920;-64